sensor_id;sensor_type;location;lat;lon;timestamp;P1;durP1;ratioP1;P2;durP2;ratioP2
10142;SDS011;5112;54.088;13.446;2024-02-23T00:01:08;1.40;;;1.30;;
10142;SDS011;5112;54.088;13.446;2024-02-23T00:11:13;1.10;;;1.10;;
10142;SDS011;5112;54.088;13.446;2024-02-23T00:21:14;1.13;;;1.03;;
10142;SDS011;5112;54.088;13.446;2024-02-23T00:31:17;1.10;;;1.00;;
10142;SDS011;5112;54.088;13.446;2024-02-23T00:41:19;1.30;;;1.20;;
10142;SDS011;5112;54.088;13.446;2024-02-23T00:51:22;0.90;;;0.90;;
10142;SDS011;5112;54.088;13.446;2024-02-23T01:01:23;0.77;;;0.77;;
10142;SDS011;5112;54.088;13.446;2024-02-23T01:11:27;1.30;;;1.20;;
10142;SDS011;5112;54.088;13.446;2024-02-23T01:21:29;1.07;;;1.00;;
10142;SDS011;5112;54.088;13.446;2024-02-23T01:31:32;1.50;;;1.40;;
10142;SDS011;5112;54.088;13.446;2024-02-23T01:41:33;1.00;;;0.90;;
10142;SDS011;5112;54.088;13.446;2024-02-23T01:51:36;1.00;;;0.97;;
10142;SDS011;5112;54.088;13.446;2024-02-23T02:01:38;0.90;;;0.90;;
10142;SDS011;5112;54.088;13.446;2024-02-23T02:11:46;1.00;;;0.93;;
10142;SDS011;5112;54.088;13.446;2024-02-23T02:21:48;6.63;;;1.50;;
10142;SDS011;5112;54.088;13.446;2024-02-23T02:31:51;1.80;;;1.50;;
10142;SDS011;5112;54.088;13.446;2024-02-23T02:41:52;5.03;;;1.40;;
10142;SDS011;5112;54.088;13.446;2024-02-23T02:51:55;1.30;;;1.20;;
10142;SDS011;5112;54.088;13.446;2024-02-23T03:01:57;1.10;;;1.00;;
10142;SDS011;5112;54.088;13.446;2024-02-23T03:12:00;1.77;;;1.10;;
10142;SDS011;5112;54.088;13.446;2024-02-23T03:22:01;2.10;;;1.13;;
10142;SDS011;5112;54.088;13.446;2024-02-23T03:32:05;0.90;;;0.90;;
10142;SDS011;5112;54.088;13.446;2024-02-23T03:42:07;2.80;;;1.20;;
10142;SDS011;5112;54.088;13.446;2024-02-23T03:52:10;2.10;;;1.20;;
10142;SDS011;5112;54.088;13.446;2024-02-23T04:02:12;1.30;;;1.20;;
10142;SDS011;5112;54.088;13.446;2024-02-23T04:12:15;3.67;;;1.57;;
10142;SDS011;5112;54.088;13.446;2024-02-23T04:22:18;3.50;;;1.47;;
10142;SDS011;5112;54.088;13.446;2024-02-23T04:32:21;0.93;;;0.80;;
10142;SDS011;5112;54.088;13.446;2024-02-23T04:42:23;1.27;;;0.83;;
10142;SDS011;5112;54.088;13.446;2024-02-23T04:52:26;0.30;;;0.30;;
10142;SDS011;5112;54.088;13.446;2024-02-23T05:02:27;0.30;;;0.30;;
10142;SDS011;5112;54.088;13.446;2024-02-23T05:12:37;0.70;;;0.60;;
10142;SDS011;5112;54.088;13.446;2024-02-23T05:22:39;0.50;;;0.50;;
10142;SDS011;5112;54.088;13.446;2024-02-23T05:32:42;0.40;;;0.37;;
10142;SDS011;5112;54.088;13.446;2024-02-23T05:42:43;1.03;;;0.80;;
10142;SDS011;5112;54.088;13.446;2024-02-23T05:52:46;0.43;;;0.40;;
10142;SDS011;5112;54.088;13.446;2024-02-23T06:02:48;0.40;;;0.40;;
10142;SDS011;5112;54.088;13.446;2024-02-23T06:12:51;0.50;;;0.50;;
10142;SDS011;5112;54.088;13.446;2024-02-23T06:22:53;0.50;;;0.50;;
10142;SDS011;5112;54.088;13.446;2024-02-23T06:32:57;0.83;;;0.50;;
10142;SDS011;5112;54.088;13.446;2024-02-23T06:42:59;0.40;;;0.40;;
10142;SDS011;5112;54.088;13.446;2024-02-23T06:53:02;0.57;;;0.43;;
10142;SDS011;5112;54.088;13.446;2024-02-23T07:03:04;0.40;;;0.40;;
10142;SDS011;5112;54.088;13.446;2024-02-23T07:13:07;0.97;;;0.87;;
10142;SDS011;5112;54.088;13.446;2024-02-23T07:23:09;2.40;;;0.60;;
10142;SDS011;5112;54.088;13.446;2024-02-23T07:33:12;1.90;;;0.80;;
10142;SDS011;5112;54.088;13.446;2024-02-23T07:43:14;1.53;;;0.80;;
10142;SDS011;5112;54.088;13.446;2024-02-23T07:53:16;1.60;;;1.20;;
10142;SDS011;5112;54.088;13.446;2024-02-23T08:03:18;2.00;;;1.10;;
10142;SDS011;5112;54.088;13.446;2024-02-23T08:13:21;1.30;;;0.90;;
10142;SDS011;5112;54.088;13.446;2024-02-23T08:23:23;2.73;;;2.07;;
10142;SDS011;5112;54.088;13.446;2024-02-23T08:33:26;5.27;;;2.17;;
10142;SDS011;5112;54.088;13.446;2024-02-23T08:43:28;1.93;;;1.20;;
10142;SDS011;5112;54.088;13.446;2024-02-23T08:53:30;1.70;;;1.30;;
10142;SDS011;5112;54.088;13.446;2024-02-23T09:03:32;1.77;;;0.97;;
10142;SDS011;5112;54.088;13.446;2024-02-23T09:13:35;1.63;;;0.90;;
10142;SDS011;5112;54.088;13.446;2024-02-23T09:23:37;1.77;;;1.10;;
10142;SDS011;5112;54.088;13.446;2024-02-23T09:33:40;2.33;;;1.30;;
10142;SDS011;5112;54.088;13.446;2024-02-23T09:43:41;1.27;;;1.00;;
10142;SDS011;5112;54.088;13.446;2024-02-23T09:53:46;1.33;;;1.00;;
10142;SDS011;5112;54.088;13.446;2024-02-23T10:03:50;3.10;;;1.17;;
10142;SDS011;5112;54.088;13.446;2024-02-23T10:13:53;2.60;;;1.20;;
10142;SDS011;5112;54.088;13.446;2024-02-23T10:23:55;1.17;;;1.07;;
10142;SDS011;5112;54.088;13.446;2024-02-23T10:33:58;3.83;;;1.27;;
10142;SDS011;5112;54.088;13.446;2024-02-23T10:44:00;1.33;;;1.00;;
10142;SDS011;5112;54.088;13.446;2024-02-23T10:54:05;1.87;;;1.13;;
10142;SDS011;5112;54.088;13.446;2024-02-23T11:04:08;1.30;;;1.20;;
10142;SDS011;5112;54.088;13.446;2024-02-23T11:14:11;2.57;;;0.97;;
10142;SDS011;5112;54.088;13.446;2024-02-23T11:24:15;1.23;;;0.80;;
10142;SDS011;5112;54.088;13.446;2024-02-23T11:34:22;1.20;;;0.90;;
10142;SDS011;5112;54.088;13.446;2024-02-23T11:44:25;2.10;;;0.73;;
10142;SDS011;5112;54.088;13.446;2024-02-23T11:54:28;2.80;;;1.07;;
10142;SDS011;5112;54.088;13.446;2024-02-23T12:04:31;1.70;;;1.10;;
10142;SDS011;5112;54.088;13.446;2024-02-23T12:14:36;2.70;;;1.10;;
10142;SDS011;5112;54.088;13.446;2024-02-23T12:24:37;2.37;;;0.90;;
10142;SDS011;5112;54.088;13.446;2024-02-23T12:34:43;1.37;;;1.23;;
10142;SDS011;5112;54.088;13.446;2024-02-23T12:44:45;4.17;;;1.50;;
10142;SDS011;5112;54.088;13.446;2024-02-23T12:54:48;1.90;;;0.93;;
10142;SDS011;5112;54.088;13.446;2024-02-23T13:04:50;1.93;;;0.90;;
10142;SDS011;5112;54.088;13.446;2024-02-23T13:14:53;2.27;;;0.90;;
10142;SDS011;5112;54.088;13.446;2024-02-23T13:24:54;3.20;;;1.27;;
10142;SDS011;5112;54.088;13.446;2024-02-23T13:34:57;2.77;;;1.30;;
10142;SDS011;5112;54.088;13.446;2024-02-23T13:45:04;2.43;;;1.37;;
10142;SDS011;5112;54.088;13.446;2024-02-23T13:55:08;2.17;;;1.00;;
10142;SDS011;5112;54.088;13.446;2024-02-23T14:05:10;2.17;;;1.10;;
10142;SDS011;5112;54.088;13.446;2024-02-23T14:15:14;2.43;;;0.83;;
10142;SDS011;5112;54.088;13.446;2024-02-23T14:25:15;2.27;;;1.17;;
10142;SDS011;5112;54.088;13.446;2024-02-23T14:35:18;1.97;;;1.10;;
10142;SDS011;5112;54.088;13.446;2024-02-23T14:45:20;1.63;;;0.80;;
10142;SDS011;5112;54.088;13.446;2024-02-23T14:55:24;2.07;;;1.00;;
10142;SDS011;5112;54.088;13.446;2024-02-23T15:05:26;2.40;;;0.90;;
10142;SDS011;5112;54.088;13.446;2024-02-23T15:15:29;1.97;;;0.80;;
10142;SDS011;5112;54.088;13.446;2024-02-23T15:25:31;1.50;;;0.80;;
10142;SDS011;5112;54.088;13.446;2024-02-23T15:35:36;2.20;;;0.80;;
10142;SDS011;5112;54.088;13.446;2024-02-23T15:45:37;1.43;;;0.60;;
10142;SDS011;5112;54.088;13.446;2024-02-23T15:55:40;0.70;;;0.63;;
10142;SDS011;5112;54.088;13.446;2024-02-23T16:05:42;1.57;;;0.97;;
10142;SDS011;5112;54.088;13.446;2024-02-23T16:15:45;1.33;;;1.10;;
10142;SDS011;5112;54.088;13.446;2024-02-23T16:25:47;1.37;;;1.27;;
10142;SDS011;5112;54.088;13.446;2024-02-23T16:35:51;0.63;;;0.60;;
10142;SDS011;5112;54.088;13.446;2024-02-23T16:45:56;1.90;;;1.10;;
10142;SDS011;5112;54.088;13.446;2024-02-23T16:55:59;1.70;;;0.60;;
10142;SDS011;5112;54.088;13.446;2024-02-23T17:06:01;1.33;;;0.70;;
10142;SDS011;5112;54.088;13.446;2024-02-23T17:16:05;1.33;;;0.83;;
10142;SDS011;5112;54.088;13.446;2024-02-23T17:26:07;2.20;;;1.13;;
10142;SDS011;5112;54.088;13.446;2024-02-23T17:36:10;1.23;;;1.00;;
10142;SDS011;5112;54.088;13.446;2024-02-23T17:46:12;1.97;;;0.80;;
10142;SDS011;5112;54.088;13.446;2024-02-23T17:56:15;1.47;;;0.90;;
10142;SDS011;5112;54.088;13.446;2024-02-23T18:06:16;2.30;;;1.17;;
10142;SDS011;5112;54.088;13.446;2024-02-23T18:16:21;1.67;;;0.90;;
10142;SDS011;5112;54.088;13.446;2024-02-23T18:26:23;2.17;;;0.80;;
10142;SDS011;5112;54.088;13.446;2024-02-23T18:36:26;1.10;;;0.90;;
10142;SDS011;5112;54.088;13.446;2024-02-23T18:46:28;0.70;;;0.70;;
10142;SDS011;5112;54.088;13.446;2024-02-23T18:56:31;0.90;;;0.70;;
10142;SDS011;5112;54.088;13.446;2024-02-23T19:06:32;2.60;;;1.17;;
10142;SDS011;5112;54.088;13.446;2024-02-23T19:16:36;2.00;;;1.20;;
10142;SDS011;5112;54.088;13.446;2024-02-23T19:26:38;2.13;;;0.90;;
10142;SDS011;5112;54.088;13.446;2024-02-23T19:36:41;3.17;;;1.60;;
10142;SDS011;5112;54.088;13.446;2024-02-23T19:46:43;2.00;;;0.90;;
10142;SDS011;5112;54.088;13.446;2024-02-23T19:56:46;1.03;;;0.93;;
10142;SDS011;5112;54.088;13.446;2024-02-23T20:06:48;0.93;;;0.80;;
10142;SDS011;5112;54.088;13.446;2024-02-23T20:16:51;1.53;;;1.20;;
10142;SDS011;5112;54.088;13.446;2024-02-23T20:26:52;1.37;;;1.10;;
10142;SDS011;5112;54.088;13.446;2024-02-23T20:36:55;2.03;;;1.33;;
10142;SDS011;5112;54.088;13.446;2024-02-23T20:46:57;1.43;;;1.20;;
10142;SDS011;5112;54.088;13.446;2024-02-23T20:57:00;1.63;;;1.20;;
10142;SDS011;5112;54.088;13.446;2024-02-23T21:07:03;2.97;;;1.30;;
10142;SDS011;5112;54.088;13.446;2024-02-23T21:17:06;3.03;;;1.20;;
10142;SDS011;5112;54.088;13.446;2024-02-23T21:27:08;1.40;;;1.30;;
10142;SDS011;5112;54.088;13.446;2024-02-23T21:37:11;2.03;;;1.27;;
10142;SDS011;5112;54.088;13.446;2024-02-23T21:47:16;1.50;;;1.40;;
10142;SDS011;5112;54.088;13.446;2024-02-23T21:57:19;2.30;;;1.20;;
10142;SDS011;5112;54.088;13.446;2024-02-23T22:07:23;1.47;;;1.20;;
10142;SDS011;5112;54.088;13.446;2024-02-23T22:17:26;2.23;;;1.77;;
10142;SDS011;5112;54.088;13.446;2024-02-23T22:27:28;2.33;;;1.40;;
10142;SDS011;5112;54.088;13.446;2024-02-23T22:37:31;3.47;;;1.90;;
10142;SDS011;5112;54.088;13.446;2024-02-23T22:47:33;4.13;;;2.13;;
10142;SDS011;5112;54.088;13.446;2024-02-23T22:57:36;3.23;;;2.23;;
10142;SDS011;5112;54.088;13.446;2024-02-23T23:07:38;2.20;;;1.93;;
10142;SDS011;5112;54.088;13.446;2024-02-23T23:17:41;4.13;;;1.80;;
10142;SDS011;5112;54.088;13.446;2024-02-23T23:27:42;3.07;;;1.90;;
10142;SDS011;5112;54.088;13.446;2024-02-23T23:37:45;2.50;;;1.93;;
10142;SDS011;5112;54.088;13.446;2024-02-23T23:47:47;2.37;;;2.00;;
10142;SDS011;5112;54.088;13.446;2024-02-23T23:57:50;2.83;;;1.53;;
